Time;durP1;ratioP1;P1;durP2;ratioP2;P2;SDS_P1;SDS_P2;PMS_P1;PMS_P2;Temp;Humidity;BMP_temperature;BMP_pressure;BME280_temperature;BME280_humidity;BME280_pressure;Samples;Min_cycle;Max_cycle;Signal;HPM_P1;HPM_P2
2022/11/28 00:00:11;;;;;;;5.40;4.50;;;;;;;;;;5053571;28;20200;-44
2022/11/28 00:02:37;;;;;;;4.87;4.30;;;;;;;;;;5053506;28;20731;-44
2022/11/28 00:05:04;;;;;;;6.23;4.60;;;;;;;;;;5053547;28;20192;-44
2022/11/28 00:07:30;;;;;;;4.97;4.10;;;;;;;;;;5053398;28;20640;-44
2022/11/28 00:09:57;;;;;;;4.73;4.33;;;;;;;;;;5053353;28;20319;-46
2022/11/28 00:12:23;;;;;;;6.87;4.63;;;;;;;;;;5053353;28;20295;-44
2022/11/28 00:14:49;;;;;;;5.60;4.87;;;;;;;;;;5053173;28;20254;-43
2022/11/28 00:17:15;;;;;;;5.27;4.23;;;;;;;;;;5053283;28;21000;-44
2022/11/28 00:19:41;;;;;;;6.47;4.80;;;;;;;;;;5053320;28;20287;-43
2022/11/28 00:22:07;;;;;;;6.20;5.07;;;;;;;;;;5053326;28;20530;-43
2022/11/28 00:24:33;;;;;;;5.03;4.50;;;;;;;;;;5053213;28;20198;-43
2022/11/28 00:27:00;;;;;;;6.57;5.07;;;;;;;;;;5053064;28;20870;-43
2022/11/28 00:29:26;;;;;;;7.83;5.20;;;;;;;;;;5053046;28;20299;-43
2022/11/28 00:31:52;;;;;;;5.47;4.97;;;;;;;;;;5052216;28;20227;-43
2022/11/28 00:34:18;;;;;;;5.80;4.80;;;;;;;;;;5052924;28;20479;-43
2022/11/28 00:36:45;;;;;;;5.77;4.67;;;;;;;;;;5052893;28;20201;-43
2022/11/28 00:39:12;;;;;;;6.20;4.90;;;;;;;;;;5052981;28;20508;-43
2022/11/28 00:41:38;;;;;;;7.03;4.73;;;;;;;;;;5052810;28;20447;-43
2022/11/28 00:44:05;;;;;;;5.43;4.93;;;;;;;;;;5052895;28;20873;-44
2022/11/28 00:46:31;;;;;;;5.47;4.90;;;;;;;;;;5052850;28;20200;-44
2022/11/28 00:48:58;;;;;;;5.63;5.00;;;;;;;;;;5052648;28;20509;-43
2022/11/28 00:51:24;;;;;;;5.63;5.07;;;;;;;;;;5052501;28;20239;-43
2022/11/28 00:53:51;;;;;;;6.67;5.10;;;;;;;;;;5052461;28;20475;-43
2022/11/28 00:56:18;;;;;;;5.30;4.80;;;;;;;;;;5052533;28;20933;-44
2022/11/28 00:58:46;;;;;;;6.47;5.47;;;;;;;;;;5052411;28;20488;-43
2022/11/28 01:01:15;;;;;;;5.70;5.07;;;;;;;;;;5052358;28;20813;-43
2022/11/28 01:03:41;;;;;;;5.50;4.93;;;;;;;;;;5052388;28;20473;-43
2022/11/28 01:06:07;;;;;;;5.77;5.27;;;;;;;;;;5052516;28;20770;-43
2022/11/28 01:08:33;;;;;;;6.40;5.57;;;;;;;;;;5052339;28;20458;-43
2022/11/28 01:11:00;;;;;;;7.17;5.77;;;;;;;;;;5052271;28;20853;-43
2022/11/28 01:13:26;;;;;;;7.50;6.00;;;;;;;;;;5052112;28;20992;-43
2022/11/28 01:15:52;;;;;;;6.33;5.60;;;;;;;;;;5051980;28;20845;-43
2022/11/28 01:18:19;;;;;;;6.30;4.97;;;;;;;;;;5051776;28;20916;-43
2022/11/28 01:20:45;;;;;;;6.33;5.17;;;;;;;;;;5052024;28;20443;-43
2022/11/28 01:23:11;;;;;;;6.43;5.07;;;;;;;;;;5052204;28;20442;-43
2022/11/28 01:25:37;;;;;;;6.43;5.27;;;;;;;;;;5052159;28;20449;-43
2022/11/28 01:28:03;;;;;;;6.57;4.83;;;;;;;;;;5051816;28;20431;-43
2022/11/28 01:30:29;;;;;;;5.60;5.07;;;;;;;;;;5051969;28;20987;-43
2022/11/28 01:32:56;;;;;;;6.13;4.93;;;;;;;;;;5051809;28;20447;-43
2022/11/28 01:35:23;;;;;;;5.63;5.03;;;;;;;;;;5051994;28;20293;-43
2022/11/28 01:37:49;;;;;;;5.90;5.30;;;;;;;;;;5051918;28;20641;-43
2022/11/28 01:40:15;;;;;;;5.50;5.00;;;;;;;;;;5052037;28;20478;-44
2022/11/28 01:42:41;;;;;;;6.17;5.00;;;;;;;;;;5051691;28;20243;-43
2022/11/28 01:45:12;;;;;;;5.23;4.73;;;;;;;;;;5051957;28;20465;-44
2022/11/28 01:47:38;;;;;;;5.33;4.37;;;;;;;;;;5051768;28;20985;-44
2022/11/28 01:50:05;;;;;;;5.40;4.90;;;;;;;;;;5051743;28;20532;-43
2022/11/28 01:52:33;;;;;;;4.97;4.47;;;;;;;;;;5051890;28;20825;-44
2022/11/28 01:55:01;;;;;;;6.77;4.40;;;;;;;;;;5051709;28;20524;-44
2022/11/28 01:57:27;;;;;;;5.60;4.90;;;;;;;;;;5051837;28;20576;-45
2022/11/28 01:59:55;;;;;;;4.80;4.10;;;;;;;;;;5051606;28;20446;-44
2022/11/28 02:02:24;;;;;;;4.40;4.00;;;;;;;;;;5051824;28;20435;-44
2022/11/28 02:04:50;;;;;;;5.20;4.50;;;;;;;;;;5051645;28;20442;-44
2022/11/28 02:07:16;;;;;;;5.27;4.50;;;;;;;;;;5051793;28;20439;-43
2022/11/28 02:09:44;;;;;;;4.70;4.27;;;;;;;;;;5051519;28;20542;-44
2022/11/28 02:12:14;;;;;;;5.20;4.30;;;;;;;;;;5051729;28;20463;-44
2022/11/28 02:14:49;;;;;;;4.87;4.37;;;;;;;;;;5051527;28;20474;-43
2022/11/28 02:17:20;;;;;;;4.43;4.03;;;;;;;;;;5051672;28;20457;-44
2022/11/28 02:19:59;;;;;;;4.30;3.90;;;;;;;;;;5051626;28;20446;-49
2022/11/28 02:22:28;;;;;;;6.03;4.67;;;;;;;;;;5051572;28;20442;-45
2022/11/28 02:24:59;;;;;;;5.63;4.90;;;;;;;;;;5051469;28;20435;-43
2022/11/28 02:27:43;;;;;;;5.13;4.57;;;;;;;;;;5051346;28;20692;-44
2022/11/28 02:30:15;;;;;;;5.63;4.63;;;;;;;;;;5051407;28;20477;-45
2022/11/28 02:32:52;;;;;;;5.60;4.47;;;;;;;;;;5051441;28;20618;-45
2022/11/28 02:35:19;;;;;;;7.87;5.20;;;;;;;;;;5051451;28;20470;-44
2022/11/28 02:37:50;;;;;;;5.83;5.07;;;;;;;;;;5051301;28;20435;-45
2022/11/28 02:40:21;;;;;;;7.23;4.23;;;;;;;;;;5051389;28;20719;-44
2022/11/28 02:42:50;;;;;;;5.13;4.63;;;;;;;;;;5051314;28;20526;-44
2022/11/28 02:45:19;;;;;;;6.83;4.40;;;;;;;;;;5051260;28;20500;-44
2022/11/28 02:47:48;;;;;;;5.37;4.57;;;;;;;;;;5051169;28;20207;-44
2022/11/28 02:50:18;;;;;;;7.30;4.60;;;;;;;;;;5051169;28;20252;-44
2022/11/28 02:52:46;;;;;;;5.67;4.30;;;;;;;;;;5051208;28;20486;-44
2022/11/28 02:55:13;;;;;;;5.03;4.30;;;;;;;;;;5053322;28;20470;-44
2022/11/28 02:57:40;;;;;;;5.10;4.60;;;;;;;;;;5054855;28;20484;-44
2022/11/28 03:00:21;;;;;;;5.07;4.57;;;;;;;;;;5054660;28;20507;-44
2022/11/28 03:02:52;;;;;;;5.87;4.73;;;;;;;;;;5052148;28;20470;-43
2022/11/28 03:05:20;;;;;;;5.17;4.70;;;;;;;;;;5054662;28;20537;-43
2022/11/28 03:07:56;;;;;;;5.20;4.70;;;;;;;;;;5054480;28;20458;-43
2022/11/28 03:10:24;;;;;;;5.10;4.60;;;;;;;;;;5054754;28;20203;-43
2022/11/28 03:12:53;;;;;;;5.27;4.77;;;;;;;;;;5054479;28;20521;-43
2022/11/28 03:15:22;;;;;;;6.13;4.93;;;;;;;;;;5054061;28;20524;-44
2022/11/28 03:17:52;;;;;;;5.57;5.00;;;;;;;;;;5053974;28;20447;-44
2022/11/28 03:20:20;;;;;;;6.53;4.50;;;;;;;;;;5054532;28;20453;-43
2022/11/28 03:22:51;;;;;;;5.70;4.90;;;;;;;;;;5054252;28;20526;-44
2022/11/28 03:25:22;;;;;;;5.17;4.60;;;;;;;;;;5054396;28;20199;-44
2022/11/28 03:27:51;;;;;;;6.67;4.60;;;;;;;;;;5054200;28;20442;-44
2022/11/28 03:30:21;;;;;;;5.20;4.70;;;;;;;;;;5054233;28;20485;-44
2022/11/28 03:32:50;;;;;;;7.33;4.70;;;;;;;;;;5054141;28;20462;-44
2022/11/28 03:35:19;;;;;;;5.20;4.70;;;;;;;;;;5054144;28;20494;-44
2022/11/28 03:37:47;;;;;;;4.97;4.50;;;;;;;;;;5054106;28;20439;-44
2022/11/28 03:40:19;;;;;;;5.57;5.00;;;;;;;;;;5054061;28;20446;-44
2022/11/28 03:42:47;;;;;;;6.50;4.73;;;;;;;;;;5054020;28;20952;-44
2022/11/28 03:45:14;;;;;;;5.23;4.73;;;;;;;;;;5053979;28;20443;-44
2022/11/28 03:47:45;;;;;;;5.10;4.60;;;;;;;;;;5053886;28;20458;-44
2022/11/28 03:50:17;;;;;;;6.13;4.83;;;;;;;;;;5053898;28;20220;-45
2022/11/28 03:52:48;;;;;;;5.73;4.70;;;;;;;;;;5053853;28;20442;-48
2022/11/28 03:55:18;;;;;;;5.00;4.07;;;;;;;;;;5053839;28;20246;-44
2022/11/28 03:57:46;;;;;;;5.97;4.53;;;;;;;;;;5053756;28;20488;-44
2022/11/28 04:00:12;;;;;;;5.03;4.13;;;;;;;;;;5053638;28;20199;-44
2022/11/28 04:02:42;;;;;;;5.57;4.60;;;;;;;;;;5053766;28;20212;-44
2022/11/28 04:05:14;;;;;;;5.77;4.53;;;;;;;;;;5053235;28;20461;-44
2022/11/28 04:07:43;;;;;;;4.23;3.83;;;;;;;;;;5053008;28;20283;-45
2022/11/28 04:10:13;;;;;;;5.00;4.60;;;;;;;;;;5053652;28;20459;-45
2022/11/28 04:12:45;;;;;;;6.50;4.30;;;;;;;;;;5053465;28;20196;-44
2022/11/28 04:15:14;;;;;;;5.13;4.03;;;;;;;;;;5053252;28;20282;-43
2022/11/28 04:17:45;;;;;;;5.30;4.80;;;;;;;;;;5053281;28;20200;-48
2022/11/28 04:20:14;;;;;;;5.57;4.00;;;;;;;;;;5053401;28;20467;-44
2022/11/28 04:22:43;;;;;;;4.67;4.27;;;;;;;;;;5053212;28;20207;-44
2022/11/28 04:25:13;;;;;;;6.00;4.07;;;;;;;;;;5053119;28;20208;-44
2022/11/28 04:27:40;;;;;;;4.80;4.17;;;;;;;;;;5053237;28;20224;-49
2022/11/28 04:30:07;;;;;;;4.67;4.20;;;;;;;;;;5053083;28;20205;-44
2022/11/28 04:32:35;;;;;;;4.63;4.23;;;;;;;;;;5053016;28;20204;-44
2022/11/28 04:35:03;;;;;;;6.70;4.43;;;;;;;;;;5052933;28;20216;-45
2022/11/28 04:37:30;;;;;;;4.40;3.93;;;;;;;;;;5053014;28;20242;-44
2022/11/28 04:39:56;;;;;;;4.73;4.33;;;;;;;;;;5051538;28;20288;-44
2022/11/28 04:42:26;;;;;;;5.63;4.60;;;;;;;;;;5053023;28;20200;-45
2022/11/28 04:44:54;;;;;;;4.97;4.47;;;;;;;;;;5052674;28;20200;-44
2022/11/28 04:47:21;;;;;;;5.50;4.50;;;;;;;;;;5051730;28;20282;-45
2022/11/28 04:49:47;;;;;;;5.03;4.07;;;;;;;;;;5051877;28;20354;-51
2022/11/28 04:52:16;;;;;;;4.80;4.27;;;;;;;;;;5052660;28;20207;-45
2022/11/28 04:54:46;;;;;;;6.07;4.30;;;;;;;;;;5052236;28;20228;-46
2022/11/28 04:57:14;;;;;;;4.90;4.40;;;;;;;;;;5052775;28;20208;-45
2022/11/28 04:59:42;;;;;;;5.40;4.13;;;;;;;;;;5052561;28;20196;-45
2022/11/28 05:02:08;;;;;;;4.70;4.20;;;;;;;;;;5052526;28;20287;-45
2022/11/28 05:04:35;;;;;;;6.13;5.17;;;;;;;;;;5052489;28;20212;-45
2022/11/28 05:07:02;;;;;;;4.70;4.20;;;;;;;;;;5052265;28;20626;-44
2022/11/28 05:09:28;;;;;;;4.77;3.97;;;;;;;;;;5052020;28;20216;-44
2022/11/28 05:11:54;;;;;;;5.37;3.97;;;;;;;;;;5067414;28;20214;-43
2022/11/28 05:14:21;;;;;;;5.80;4.20;;;;;;;;;;5067805;28;20556;-43
2022/11/28 05:16:48;;;;;;;4.43;4.03;;;;;;;;;;5070941;28;20279;-45
2022/11/28 05:19:14;;;;;;;5.90;4.47;;;;;;;;;;5071417;28;20265;-44
2022/11/28 05:21:41;;;;;;;4.70;4.30;;;;;;;;;;5071716;28;20605;-43
2022/11/28 05:24:07;;;;;;;5.67;4.87;;;;;;;;;;5071719;28;20249;-44
2022/11/28 05:26:34;;;;;;;4.87;4.23;;;;;;;;;;5071707;28;20669;-44
2022/11/28 05:29:00;;;;;;;5.23;4.27;;;;;;;;;;5072011;28;20208;-43
2022/11/28 05:31:27;;;;;;;5.30;4.20;;;;;;;;;;5072034;28;20203;-43
2022/11/28 05:33:55;;;;;;;4.57;4.17;;;;;;;;;;5069967;28;20219;-43
2022/11/28 05:36:21;;;;;;;4.73;4.20;;;;;;;;;;5069758;28;20290;-42
2022/11/28 05:38:47;;;;;;;4.80;3.97;;;;;;;;;;5071737;28;20210;-44
2022/11/28 05:41:18;;;;;;;5.13;4.50;;;;;;;;;;5071749;28;20673;-43
2022/11/28 05:43:44;;;;;;;5.53;4.37;;;;;;;;;;5070847;28;20661;-43
2022/11/28 05:46:10;;;;;;;4.57;3.90;;;;;;;;;;5071721;28;20757;-43
2022/11/28 05:48:37;;;;;;;6.17;4.43;;;;;;;;;;5071602;28;20264;-43
2022/11/28 05:51:05;;;;;;;7.37;4.13;;;;;;;;;;5071358;28;20886;-42
2022/11/28 05:53:31;;;;;;;4.83;4.33;;;;;;;;;;5071653;28;20434;-44
2022/11/28 05:55:57;;;;;;;4.40;4.00;;;;;;;;;;5071751;28;20919;-43
2022/11/28 05:58:23;;;;;;;4.83;4.33;;;;;;;;;;5071589;28;20447;-43
2022/11/28 06:00:49;;;;;;;5.70;4.40;;;;;;;;;;5071588;28;20195;-42
2022/11/28 06:03:15;;;;;;;4.80;4.40;;;;;;;;;;5071471;28;20284;-43
2022/11/28 06:05:42;;;;;;;5.07;4.57;;;;;;;;;;5071594;28;20195;-43
2022/11/28 06:08:10;;;;;;;4.80;4.30;;;;;;;;;;5071180;28;20630;-43
2022/11/28 06:10:36;;;;;;;6.70;4.50;;;;;;;;;;5071466;28;20546;-44
2022/11/28 06:13:02;;;;;;;4.63;4.23;;;;;;;;;;5071124;28;20227;-44
2022/11/28 06:15:29;;;;;;;5.33;4.83;;;;;;;;;;5071022;28;20276;-44
2022/11/28 06:17:55;;;;;;;5.10;4.63;;;;;;;;;;5071193;28;20199;-43
2022/11/28 06:20:21;;;;;;;4.87;4.47;;;;;;;;;;5071521;28;20202;-43
2022/11/28 06:22:47;;;;;;;5.10;4.50;;;;;;;;;;5071351;28;20286;-43
2022/11/28 06:25:14;;;;;;;5.53;4.53;;;;;;;;;;5071554;28;20285;-43
2022/11/28 06:27:43;;;;;;;5.07;4.57;;;;;;;;;;5071282;28;20425;-43
2022/11/28 06:30:10;;;;;;;6.30;4.90;;;;;;;;;;5073317;28;20613;-43
2022/11/28 06:32:36;;;;;;;7.83;5.27;;;;;;;;;;5074898;28;20227;-44
2022/11/28 06:35:02;;;;;;;5.20;4.70;;;;;;;;;;5074880;28;20592;-44
2022/11/28 06:37:28;;;;;;;5.10;4.60;;;;;;;;;;5075175;28;20675;-44
2022/11/28 06:39:54;;;;;;;5.07;4.57;;;;;;;;;;5074959;28;20202;-45
2022/11/28 06:42:21;;;;;;;5.00;4.50;;;;;;;;;;5075116;28;20274;-43
2022/11/28 06:44:47;;;;;;;6.73;4.53;;;;;;;;;;5075065;28;20223;-43
2022/11/28 06:47:13;;;;;;;5.87;5.27;;;;;;;;;;5074891;28;20257;-43
2022/11/28 06:49:39;;;;;;;8.30;6.23;;;;;;;;;;5075039;28;20231;-43
2022/11/28 06:52:05;;;;;;;31.13;17.50;;;;;;;;;;5074945;28;20692;-44
2022/11/28 06:54:31;;;;;;;23.27;12.93;;;;;;;;;;5075012;28;20227;-43
2022/11/28 06:56:57;;;;;;;14.33;9.23;;;;;;;;;;5075066;28;20207;-43
2022/11/28 06:59:25;;;;;;;8.50;6.80;;;;;;;;;;5074856;28;20231;-44
2022/11/28 07:01:52;;;;;;;6.83;5.30;;;;;;;;;;5074964;28;20599;-43
2022/11/28 07:04:18;;;;;;;6.73;5.70;;;;;;;;;;5074631;28;20192;-42
2022/11/28 07:06:44;;;;;;;5.83;4.80;;;;;;;;;;5074644;28;20188;-43
2022/11/28 07:09:10;;;;;;;4.80;4.30;;;;;;;;;;5074489;28;20224;-43
2022/11/28 07:11:36;;;;;;;5.10;4.67;;;;;;;;;;5074497;28;20203;-43
2022/11/28 07:14:02;;;;;;;5.67;4.63;;;;;;;;;;5074194;28;20251;-43
2022/11/28 07:16:31;;;;;;;7.00;4.47;;;;;;;;;;5074526;28;20606;-43
2022/11/28 07:18:57;;;;;;;4.93;4.23;;;;;;;;;;5074286;28;20206;-42
2022/11/28 07:21:23;;;;;;;4.80;4.40;;;;;;;;;;5074334;28;20195;-43
2022/11/28 07:23:50;;;;;;;4.90;4.20;;;;;;;;;;5074173;28;20241;-43
2022/11/28 07:26:17;;;;;;;5.50;5.00;;;;;;;;;;5074295;28;20195;-43
2022/11/28 07:28:43;;;;;;;4.93;4.43;;;;;;;;;;5074257;28;20226;-43
2022/11/28 07:31:10;;;;;;;5.73;4.77;;;;;;;;;;5074214;28;20852;-50
2022/11/28 07:33:38;;;;;;;5.77;4.93;;;;;;;;;;5074156;28;20433;-43
2022/11/28 07:36:04;;;;;;;5.40;4.90;;;;;;;;;;5074133;28;20278;-43
2022/11/28 07:38:31;;;;;;;5.47;4.77;;;;;;;;;;5074074;28;20654;-43
2022/11/28 07:41:01;;;;;;;5.67;5.17;;;;;;;;;;5073683;28;20495;-43
2022/11/28 07:43:27;;;;;;;5.03;4.53;;;;;;;;;;5074061;28;20426;-42
2022/11/28 07:45:53;;;;;;;6.13;4.60;;;;;;;;;;5073831;28;20191;-43
2022/11/28 07:48:19;;;;;;;5.90;5.00;;;;;;;;;;5073799;28;20218;-42
2022/11/28 07:50:47;;;;;;;6.23;5.63;;;;;;;;;;5073727;28;20709;-42
2022/11/28 07:53:13;;;;;;;5.50;5.00;;;;;;;;;;5073889;28;20499;-42
2022/11/28 07:55:39;;;;;;;5.90;4.90;;;;;;;;;;5073707;28;20250;-43
2022/11/28 07:58:05;;;;;;;6.27;4.93;;;;;;;;;;5073525;28;20929;-43
2022/11/28 08:00:31;;;;;;;5.40;4.90;;;;;;;;;;5073639;28;20588;-43
2022/11/28 08:02:57;;;;;;;6.50;5.30;;;;;;;;;;5073549;28;20527;-43
2022/11/28 08:05:23;;;;;;;8.60;5.60;;;;;;;;;;5073428;28;20924;-43
2022/11/28 08:07:51;;;;;;;6.40;5.37;;;;;;;;;;5073396;28;20492;-44
2022/11/28 08:10:17;;;;;;;5.37;4.87;;;;;;;;;;5073330;28;20442;-44
2022/11/28 08:12:43;;;;;;;6.07;5.23;;;;;;;;;;5073338;28;20442;-44
2022/11/28 08:15:10;;;;;;;7.17;5.70;;;;;;;;;;5073114;28;20478;-44
2022/11/28 08:17:36;;;;;;;5.50;5.00;;;;;;;;;;5073272;28;20846;-43
2022/11/28 08:20:02;;;;;;;7.17;5.37;;;;;;;;;;5073238;28;20993;-43
2022/11/28 08:22:28;;;;;;;5.77;5.17;;;;;;;;;;5073302;28;20487;-44
2022/11/28 08:24:55;;;;;;;5.63;5.13;;;;;;;;;;5073088;28;20432;-43
2022/11/28 08:27:21;;;;;;;5.97;5.10;;;;;;;;;;5073126;28;20200;-44
2022/11/28 08:29:47;;;;;;;5.93;5.33;;;;;;;;;;5073236;28;20196;-44
2022/11/28 08:32:13;;;;;;;5.93;5.33;;;;;;;;;;5072954;28;20434;-44
2022/11/28 08:34:39;;;;;;;5.90;5.37;;;;;;;;;;5073049;28;20231;-45
2022/11/28 08:37:05;;;;;;;6.67;5.20;;;;;;;;;;5072930;28;20279;-44
2022/11/28 08:39:32;;;;;;;6.73;5.70;;;;;;;;;;5072930;28;20202;-43
2022/11/28 08:42:00;;;;;;;6.10;5.50;;;;;;;;;;5072496;28;20685;-44
2022/11/28 08:44:26;;;;;;;8.30;6.30;;;;;;;;;;5072796;28;20248;-44
2022/11/28 08:46:53;;;;;;;10.53;8.03;;;;;;;;;;5072453;28;20650;-44
2022/11/28 08:49:19;;;;;;;10.60;8.33;;;;;;;;;;5072528;28;20210;-44
2022/11/28 08:51:45;;;;;;;9.93;7.30;;;;;;;;;;5071982;28;20643;-44
2022/11/28 08:54:11;;;;;;;5.83;5.23;;;;;;;;;;5072295;28;20258;-44
2022/11/28 08:56:37;;;;;;;7.03;6.07;;;;;;;;;;5072386;28;20199;-45
2022/11/28 08:59:06;;;;;;;7.67;6.47;;;;;;;;;;5072241;28;20241;-43
2022/11/28 09:01:32;;;;;;;6.10;5.50;;;;;;;;;;5072430;28;20309;-47
2022/11/28 09:03:58;;;;;;;6.17;5.57;;;;;;;;;;5072322;28;20188;-44
2022/11/28 09:06:24;;;;;;;6.40;5.80;;;;;;;;;;5072412;28;20195;-44
2022/11/28 09:08:51;;;;;;;7.27;6.40;;;;;;;;;;5072161;28;20215;-44
2022/11/28 09:11:18;;;;;;;8.77;7.17;;;;;;;;;;5072150;28;20202;-46
2022/11/28 09:13:44;;;;;;;7.50;6.27;;;;;;;;;;5072312;28;20191;-44
2022/11/28 09:16:12;;;;;;;6.90;6.20;;;;;;;;;;5072073;28;20214;-44
2022/11/28 09:18:38;;;;;;;8.23;6.73;;;;;;;;;;5072112;28;20737;-46
2022/11/28 09:21:08;;;;;;;8.80;6.97;;;;;;;;;;5072136;28;20339;-45
2022/11/28 09:23:34;;;;;;;7.60;6.73;;;;;;;;;;5072239;28;20191;-43
2022/11/28 09:26:00;;;;;;;7.93;6.07;;;;;;;;;;5071899;28;20238;-43
2022/11/28 09:28:27;;;;;;;7.80;6.97;;;;;;;;;;5067515;28;20199;-43
2022/11/28 09:30:59;;;;;;;7.90;6.40;;;;;;;;;;5069381;28;20199;-43
2022/11/28 09:33:26;;;;;;;7.97;6.90;;;;;;;;;;5071914;28;20199;-43
2022/11/28 09:35:54;;;;;;;8.10;7.30;;;;;;;;;;5072145;28;20223;-42
2022/11/28 09:38:20;;;;;;;9.43;7.50;;;;;;;;;;5072036;28;20274;-42
2022/11/28 09:40:47;;;;;;;7.63;6.83;;;;;;;;;;5071285;28;20230;-43
2022/11/28 09:43:15;;;;;;;8.43;7.13;;;;;;;;;;5071643;28;20661;-43
2022/11/28 09:45:43;;;;;;;8.53;7.30;;;;;;;;;;5071725;28;20196;-42
2022/11/28 09:48:19;;;;;;;7.87;6.77;;;;;;;;;;5071710;28;20671;-42
2022/11/28 09:50:47;;;;;;;7.90;7.10;;;;;;;;;;5071692;28;20269;-42
2022/11/28 09:53:18;;;;;;;7.93;7.07;;;;;;;;;;5071769;28;20226;-42
2022/11/28 09:55:47;;;;;;;9.27;7.30;;;;;;;;;;5071986;28;20705;-41
2022/11/28 09:58:14;;;;;;;8.10;7.03;;;;;;;;;;5071429;28;20249;-42
2022/11/28 10:00:44;;;;;;;7.93;7.13;;;;;;;;;;5071732;28;20230;-42
2022/11/28 10:03:27;;;;;;;7.97;7.03;;;;;;;;;;5072211;28;20229;-41
2022/11/28 10:05:58;;;;;;;10.40;6.53;;;;;;;;;;5075673;28;20586;-42
2022/11/28 10:08:30;;;;;;;9.20;7.03;;;;;;;;;;5075853;28;20310;-42
2022/11/28 10:11:02;;;;;;;7.40;6.63;;;;;;;;;;5075499;28;20207;-42
2022/11/28 10:13:33;;;;;;;7.57;6.63;;;;;;;;;;5075958;28;20609;-42
2022/11/28 10:16:03;;;;;;;12.20;7.13;;;;;;;;;;5075443;28;20226;-42
2022/11/28 10:18:35;;;;;;;8.27;7.20;;;;;;;;;;5075631;28;20199;-42
2022/11/28 10:21:04;;;;;;;8.80;7.83;;;;;;;;;;5075170;28;20223;-43
2022/11/28 10:23:34;;;;;;;9.33;7.80;;;;;;;;;;5075458;28;20211;-42
2022/11/28 10:26:01;;;;;;;12.10;8.60;;;;;;;;;;5075315;28;20523;-42
2022/11/28 10:28:30;;;;;;;10.30;8.10;;;;;;;;;;5075396;28;20206;-41
2022/11/28 10:31:00;;;;;;;9.80;7.53;;;;;;;;;;5075445;28;20208;-42
2022/11/28 10:33:28;;;;;;;10.27;8.47;;;;;;;;;;5075125;28;20252;-41
2022/11/28 10:35:55;;;;;;;10.00;7.47;;;;;;;;;;5074897;28;20276;-41
2022/11/28 10:38:26;;;;;;;13.43;9.03;;;;;;;;;;5075325;28;20199;-42
2022/11/28 10:40:55;;;;;;;11.97;8.67;;;;;;;;;;5074927;28;20704;-42
2022/11/28 10:43:27;;;;;;;11.30;7.90;;;;;;;;;;5074971;28;20673;-42
2022/11/28 10:45:57;;;;;;;9.03;7.67;;;;;;;;;;5074788;28;20234;-42
2022/11/28 10:48:30;;;;;;;10.20;7.67;;;;;;;;;;5074998;28;20204;-42
2022/11/28 10:51:02;;;;;;;10.10;7.43;;;;;;;;;;5072696;28;20238;-43
2022/11/28 10:53:35;;;;;;;9.80;8.27;;;;;;;;;;5074848;28;20192;-43
2022/11/28 10:56:05;;;;;;;10.27;7.33;;;;;;;;;;5069143;28;20257;-42
2022/11/28 10:58:37;;;;;;;9.77;7.90;;;;;;;;;;5074175;28;20206;-43
2022/11/28 11:01:03;;;;;;;12.23;8.07;;;;;;;;;;5074491;28;20200;-42
2022/11/28 11:03:32;;;;;;;9.63;7.53;;;;;;;;;;5074688;28;20199;-42
2022/11/28 11:05:59;;;;;;;11.90;7.77;;;;;;;;;;5074151;28;20688;-42
2022/11/28 11:08:26;;;;;;;7.60;6.90;;;;;;;;;;5074509;28;20612;-42
2022/11/28 11:10:57;;;;;;;8.13;7.33;;;;;;;;;;5075013;28;20202;-42
2022/11/28 11:13:24;;;;;;;8.20;7.40;;;;;;;;;;5074542;28;20203;-42
2022/11/28 11:15:52;;;;;;;11.07;8.60;;;;;;;;;;5073865;28;20589;-42
2022/11/28 11:18:21;;;;;;;10.87;9.17;;;;;;;;;;5074066;28;20576;-42
2022/11/28 11:20:47;;;;;;;10.93;8.43;;;;;;;;;;5074686;28;20299;-42
2022/11/28 11:23:15;;;;;;;9.30;7.77;;;;;;;;;;5074229;28;20287;-42
2022/11/28 11:25:46;;;;;;;9.43;7.73;;;;;;;;;;5074284;28;20257;-41
2022/11/28 11:28:25;;;;;;;8.57;7.23;;;;;;;;;;5073904;28;20245;-41
2022/11/28 11:30:57;;;;;;;9.57;8.13;;;;;;;;;;5073840;28;20865;-41
2022/11/28 11:33:26;;;;;;;10.83;9.70;;;;;;;;;;5074503;28;20283;-41
2022/11/28 11:35:52;;;;;;;9.90;7.60;;;;;;;;;;5074219;28;20235;-41
2022/11/28 11:38:26;;;;;;;9.70;7.67;;;;;;;;;;5074043;28;20203;-41
2022/11/28 11:40:52;;;;;;;9.67;7.73;;;;;;;;;;5073905;28;20662;-41
2022/11/28 11:43:25;;;;;;;8.23;7.10;;;;;;;;;;5073666;28;20214;-42
2022/11/28 11:46:03;;;;;;;8.67;7.73;;;;;;;;;;5073995;28;20192;-42
2022/11/28 11:48:35;;;;;;;9.37;7.57;;;;;;;;;;5074077;28;20199;-43
2022/11/28 11:51:01;;;;;;;8.93;7.80;;;;;;;;;;5071744;28;20728;-42
2022/11/28 11:53:27;;;;;;;9.80;7.80;;;;;;;;;;5064834;28;20214;-43
2022/11/28 11:55:54;;;;;;;8.30;7.50;;;;;;;;;;5073270;28;20219;-43
2022/11/28 11:58:22;;;;;;;11.07;9.10;;;;;;;;;;5073488;28;20206;-43
2022/11/28 12:00:52;;;;;;;13.77;9.33;;;;;;;;;;5073692;28;20196;-43
2022/11/28 12:03:23;;;;;;;11.13;9.40;;;;;;;;;;5073225;28;20207;-42
2022/11/28 12:05:51;;;;;;;10.47;9.20;;;;;;;;;;5073296;28;20195;-43
2022/11/28 12:08:23;;;;;;;13.37;10.63;;;;;;;;;;5073071;28;20302;-42
2022/11/28 12:10:52;;;;;;;9.73;8.03;;;;;;;;;;5073717;28;20198;-43
2022/11/28 12:13:19;;;;;;;9.80;8.77;;;;;;;;;;5073280;28;20294;-43
2022/11/28 12:15:49;;;;;;;11.23;9.00;;;;;;;;;;5073242;28;20227;-44
2022/11/28 12:18:22;;;;;;;11.27;9.10;;;;;;;;;;5073128;28;20203;-43
2022/11/28 12:21:03;;;;;;;9.90;8.63;;;;;;;;;;5071115;28;20714;-44
2022/11/28 12:23:37;;;;;;;9.53;8.40;;;;;;;;;;5071502;28;20564;-43
2022/11/28 12:26:09;;;;;;;14.60;9.37;;;;;;;;;;5072800;28;20203;-43
2022/11/28 12:28:41;;;;;;;10.00;8.33;;;;;;;;;;5072275;28;20199;-42
2022/11/28 12:31:12;;;;;;;9.67;8.33;;;;;;;;;;5072894;28;20199;-43
2022/11/28 12:33:46;;;;;;;9.13;8.23;;;;;;;;;;5072665;28;20199;-43
2022/11/28 12:36:17;;;;;;;9.80;8.20;;;;;;;;;;5071506;28;20709;-43
2022/11/28 12:38:53;;;;;;;9.77;8.70;;;;;;;;;;5072998;28;20203;-42
2022/11/28 12:41:25;;;;;;;7.73;6.93;;;;;;;;;;5072695;28;20680;-43
2022/11/28 12:43:57;;;;;;;11.77;8.13;;;;;;;;;;5072751;28;20254;-43
2022/11/28 12:46:29;;;;;;;9.50;7.87;;;;;;;;;;5072751;28;20253;-43
2022/11/28 12:49:02;;;;;;;9.10;8.17;;;;;;;;;;5072673;28;20658;-43
2022/11/28 12:51:34;;;;;;;8.37;7.53;;;;;;;;;;5072646;28;20203;-42
2022/11/28 12:54:06;;;;;;;8.90;8.00;;;;;;;;;;5072468;28;20662;-42
2022/11/28 12:56:36;;;;;;;9.57;8.57;;;;;;;;;;5072789;28;20290;-42
2022/11/28 12:59:05;;;;;;;11.40;7.43;;;;;;;;;;5072424;28;20200;-43
2022/11/28 13:01:44;;;;;;;9.90;7.77;;;;;;;;;;5072559;28;20213;-42
2022/11/28 13:04:20;;;;;;;10.73;6.83;;;;;;;;;;5072469;28;20223;-42
2022/11/28 13:06:52;;;;;;;7.70;6.87;;;;;;;;;;5072568;28;20210;-42
2022/11/28 13:09:28;;;;;;;9.20;7.67;;;;;;;;;;5072310;28;20245;-42
2022/11/28 13:12:04;;;;;;;8.30;7.47;;;;;;;;;;5072375;28;20218;-42
2022/11/28 13:14:36;;;;;;;9.73;7.70;;;;;;;;;;5072262;28;20211;-42
2022/11/28 13:17:08;;;;;;;9.13;8.23;;;;;;;;;;5071991;28;20204;-42
2022/11/28 13:19:40;;;;;;;9.77;8.43;;;;;;;;;;5072315;28;20199;-42
2022/11/28 13:22:10;;;;;;;9.00;7.97;;;;;;;;;;5072144;28;20203;-42
2022/11/28 13:24:39;;;;;;;10.27;9.17;;;;;;;;;;5070271;28;20546;-43
2022/11/28 13:27:09;;;;;;;10.53;8.30;;;;;;;;;;5071399;28;20217;-42
2022/11/28 13:29:37;;;;;;;11.27;9.00;;;;;;;;;;5072247;28;20279;-42
2022/11/28 13:32:07;;;;;;;11.13;8.47;;;;;;;;;;5071919;28;20195;-42
2022/11/28 13:34:34;;;;;;;9.53;8.33;;;;;;;;;;5072144;28;20215;-42
2022/11/28 13:37:15;;;;;;;8.63;7.67;;;;;;;;;;5072015;28;20261;-42
2022/11/28 13:39:45;;;;;;;9.40;7.87;;;;;;;;;;5069708;28;20261;-42
2022/11/28 13:42:19;;;;;;;8.47;7.53;;;;;;;;;;5071571;28;20203;-43
2022/11/28 13:44:50;;;;;;;8.93;7.23;;;;;;;;;;5071722;28;20209;-42
2022/11/28 13:47:26;;;;;;;10.97;8.20;;;;;;;;;;5071575;28;20195;-42
2022/11/28 13:50:07;;;;;;;10.77;7.93;;;;;;;;;;5071642;28;20241;-43
2022/11/28 13:52:40;;;;;;;12.33;9.23;;;;;;;;;;5071333;28;20203;-43
2022/11/28 13:55:27;;;;;;;9.77;8.70;;;;;;;;;;5071519;28;20230;-42
2022/11/28 13:57:53;;;;;;;11.70;8.57;;;;;;;;;;5071456;28;20211;-42
2022/11/28 14:00:21;;;;;;;9.63;8.03;;;;;;;;;;5071450;28;20199;-43
2022/11/28 14:02:49;;;;;;;10.20;8.20;;;;;;;;;;5071511;28;20203;-43
2022/11/28 14:05:22;;;;;;;8.93;7.90;;;;;;;;;;5071417;28;20210;-41
2022/11/28 14:07:49;;;;;;;8.93;7.30;;;;;;;;;;5071349;28;20656;-42
2022/11/28 14:10:24;;;;;;;10.60;7.63;;;;;;;;;;5071495;28;20242;-43
2022/11/28 14:12:56;;;;;;;9.60;7.83;;;;;;;;;;5071179;28;20205;-42
2022/11/28 14:15:27;;;;;;;9.17;7.53;;;;;;;;;;5071641;28;20219;-42
2022/11/28 14:18:08;;;;;;;9.47;7.37;;;;;;;;;;5071584;28;20199;-43
2022/11/28 14:20:37;;;;;;;7.67;6.87;;;;;;;;;;5069247;28;20210;-41
2022/11/28 14:23:17;;;;;;;9.93;7.57;;;;;;;;;;5071519;28;20578;-42
2022/11/28 14:25:44;;;;;;;8.10;7.30;;;;;;;;;;5069637;28;20249;-42
2022/11/28 14:28:17;;;;;;;11.00;7.50;;;;;;;;;;5071206;28;20210;-42
2022/11/28 14:30:44;;;;;;;8.93;8.03;;;;;;;;;;5071030;28;20199;-42
2022/11/28 14:33:16;;;;;;;11.80;7.90;;;;;;;;;;5071089;28;20203;-42
2022/11/28 14:36:02;;;;;;;9.17;8.23;;;;;;;;;;5071099;28;20292;-42
2022/11/28 14:38:42;;;;;;;11.27;8.53;;;;;;;;;;5071374;28;20203;-42
2022/11/28 14:41:11;;;;;;;13.37;9.50;;;;;;;;;;5070908;28;20207;-42
2022/11/28 14:43:38;;;;;;;11.07;9.60;;;;;;;;;;5071028;28;20689;-43
2022/11/28 14:46:19;;;;;;;9.93;8.63;;;;;;;;;;5071209;28;20196;-43
2022/11/28 14:48:59;;;;;;;10.57;8.57;;;;;;;;;;5071093;28;20203;-43